Cairneyhill, United Kingdom
Current Conditions -  °F | °C
As of 8:50 AM on Friday 24 Oct 2014 (Local Time) from EGPH Reporting Station
Few Clouds Few Clouds  
Wind Chill: 41°   Ceiling: Unl
Heat Index: 46°   Visibility: 6mi
Dew Point: 43°   Wind: 13mph
Humidity: 87%   Direction: 230°SW
Pressure: 29.77"   Gusts: NA
Location:  56.06°N, 3.54°W
Report Text: EGPH 240750Z 23011KT 9999 FEW018 08/06 Q1008
Loading
Personal Weather Stations






























Interactive Weather Map
Tropical Storm Tracking
New forecast layout! Learn more

10-Day Weather Forecast

Advertisements
Track Severe Weather on mobile